createdAt,value
2023-04-26T00:02:06.235Z,11.63
2023-04-26T00:04:34.203Z,10.80
2023-04-26T00:07:03.403Z,13.33
2023-04-26T00:09:32.767Z,12.80
2023-04-26T00:11:59.797Z,10.67
2023-04-26T00:14:26.570Z,9.63
2023-04-26T00:16:58.051Z,9.20
2023-04-26T00:19:24.920Z,9.00
2023-04-26T00:21:54.216Z,10.80
2023-04-26T00:24:25.355Z,10.97
2023-04-26T00:26:58.059Z,6.57
2023-04-26T00:29:24.828Z,7.17
2023-04-26T00:31:54.085Z,13.60
2023-04-26T00:34:23.465Z,4.10
2023-04-26T00:36:50.310Z,7.10
2023-04-26T00:39:19.623Z,4.47
2023-04-26T00:41:46.448Z,4.27
2023-04-26T00:44:15.418Z,3.90
2023-04-26T00:46:42.253Z,2.53
2023-04-26T00:49:15.869Z,8.57
2023-04-26T00:51:45.914Z,4.53
2023-04-26T00:54:15.944Z,3.90
2023-04-26T00:56:42.763Z,2.83
2023-04-26T00:59:11.645Z,4.10
2023-04-26T01:01:38.894Z,3.53
2023-04-26T01:04:08.411Z,4.10
2023-04-26T01:06:36.101Z,4.53
2023-04-26T01:09:10.100Z,3.27
2023-04-26T01:11:39.148Z,4.30
2023-04-26T01:14:06.136Z,5.43
2023-04-26T01:16:38.476Z,7.17
2023-04-26T01:19:15.196Z,5.20
2023-04-26T01:21:44.636Z,3.47
2023-04-26T01:24:12.807Z,5.47
2023-04-26T01:26:45.680Z,5.20
2023-04-26T01:29:22.241Z,6.37
2023-04-26T01:31:49.112Z,5.90
2023-04-26T01:34:18.527Z,5.07
2023-04-26T01:36:47.421Z,3.80
2023-04-26T01:39:14.239Z,6.30
2023-04-26T01:41:43.452Z,5.77
2023-04-26T01:44:12.702Z,5.53
2023-04-26T01:46:39.608Z,6.63
2023-04-26T01:49:06.569Z,6.10
2023-04-26T01:51:34.373Z,9.97
2023-04-26T01:54:01.184Z,5.67
2023-04-26T01:56:28.058Z,5.93
2023-04-26T01:58:57.543Z,5.97
2023-04-26T02:01:24.471Z,9.87
2023-04-26T02:03:56.154Z,6.43
2023-04-26T02:06:22.898Z,6.00
2023-04-26T02:08:52.378Z,7.83
2023-04-26T02:11:19.429Z,4.93
2023-04-26T02:13:46.239Z,5.07
2023-04-26T02:16:13.063Z,5.07
2023-04-26T02:18:41.685Z,6.40
2023-04-26T02:21:09.316Z,5.70
2023-04-26T02:23:36.102Z,4.47
2023-04-26T02:26:03.393Z,4.37
2023-04-26T02:28:30.474Z,7.83
2023-04-26T02:30:58.546Z,4.83
2023-04-26T02:33:27.843Z,3.97
2023-04-26T02:35:54.701Z,4.17
2023-04-26T02:38:21.568Z,4.60
2023-04-26T02:40:48.387Z,3.87
2023-04-26T02:43:15.183Z,3.67
2023-04-26T02:45:44.835Z,3.83
2023-04-26T02:48:11.595Z,4.53
2023-04-26T02:50:38.333Z,4.50
2023-04-26T02:53:07.235Z,5.40
2023-04-26T02:55:38.010Z,7.10
2023-04-26T02:58:04.809Z,5.57
2023-04-26T03:00:31.673Z,13.90
2023-04-26T03:02:58.582Z,10.40
2023-04-26T03:05:25.777Z,10.93
2023-04-26T03:07:52.653Z,13.00
2023-04-26T03:10:19.378Z,15.63
2023-04-26T03:12:46.161Z,11.73
2023-04-26T03:15:12.934Z,13.73
2023-04-26T03:17:44.415Z,11.60
2023-04-26T03:20:14.288Z,16.73
2023-04-26T03:22:41.183Z,15.40
2023-04-26T03:25:10.651Z,15.10
2023-04-26T03:27:37.393Z,16.30
2023-04-26T03:30:04.500Z,19.27
2023-04-26T03:32:31.324Z,13.30
2023-04-26T03:34:58.641Z,20.33
2023-04-26T03:37:25.533Z,15.57
2023-04-26T03:39:53.766Z,14.90
2023-04-26T03:42:20.996Z,11.57
2023-04-26T03:44:50.291Z,18.67
2023-04-26T03:47:19.590Z,16.07
2023-04-26T03:49:46.353Z,18.93
2023-04-26T03:52:13.699Z,19.80
2023-04-26T03:54:40.694Z,17.40
2023-04-26T03:57:07.522Z,18.90
2023-04-26T03:59:35.377Z,15.43
2023-04-26T04:02:02.193Z,14.33
2023-04-26T04:04:29.107Z,12.03
2023-04-26T04:06:56.112Z,13.20
2023-04-26T04:09:25.365Z,19.27
2023-04-26T04:11:52.490Z,16.13
2023-04-26T04:14:19.334Z,14.93
2023-04-26T04:16:46.506Z,14.83
2023-04-26T04:19:15.478Z,13.43
2023-04-26T04:21:45.638Z,10.87
2023-04-26T04:24:12.946Z,18.03
2023-04-26T04:26:42.495Z,22.13
2023-04-26T04:29:09.455Z,15.00
2023-04-26T04:31:40.118Z,15.73
2023-04-26T04:34:07.024Z,25.80
2023-04-26T04:36:36.252Z,17.70
2023-04-26T04:39:04.204Z,14.10
2023-04-26T04:41:32.355Z,19.03
2023-04-26T04:44:00.477Z,20.57
2023-04-26T04:46:29.901Z,17.17
2023-04-26T04:48:56.738Z,14.33
2023-04-26T04:51:23.558Z,22.83
2023-04-26T04:53:51.158Z,23.97
2023-04-26T04:56:18.559Z,28.27
2023-04-26T04:58:45.380Z,17.43
2023-04-26T05:01:12.222Z,15.47
2023-04-26T05:03:46.191Z,20.00
2023-04-26T05:06:13.041Z,23.03
2023-04-26T05:08:39.768Z,16.20
2023-04-26T05:11:09.662Z,19.07
2023-04-26T05:13:36.422Z,17.23
2023-04-26T05:16:05.670Z,19.67
2023-04-26T05:18:37.070Z,20.67
2023-04-26T05:21:04.005Z,21.63
2023-04-26T05:23:34.392Z,18.17
2023-04-26T05:26:07.285Z,18.20
2023-04-26T05:28:36.478Z,17.97
2023-04-26T05:31:04.237Z,15.93
2023-04-26T05:33:34.064Z,13.37
2023-04-26T05:36:03.068Z,15.33
2023-04-26T05:38:30.419Z,15.83
2023-04-26T05:40:57.188Z,15.83
2023-04-26T05:43:23.957Z,17.33
2023-04-26T05:45:54.474Z,14.13
2023-04-26T05:48:21.859Z,17.57
2023-04-26T05:50:49.076Z,18.00
2023-04-26T05:53:19.183Z,13.40
2023-04-26T05:55:46.107Z,17.20
2023-04-26T05:58:12.927Z,16.13
2023-04-26T06:00:39.757Z,13.67
2023-04-26T06:03:09.198Z,21.60
2023-04-26T06:05:38.378Z,12.43
2023-04-26T06:08:05.584Z,12.97
2023-04-26T06:10:32.537Z,13.63
2023-04-26T06:12:59.553Z,18.93
2023-04-26T06:15:27.807Z,9.97
2023-04-26T06:17:54.683Z,11.47
2023-04-26T06:20:21.757Z,13.40
2023-04-26T06:22:48.521Z,16.37
2023-04-26T06:25:15.550Z,10.63
2023-04-26T06:27:44.664Z,16.27
2023-04-26T06:30:11.633Z,17.37
2023-04-26T06:32:40.544Z,12.17
2023-04-26T06:35:07.784Z,19.43
2023-04-26T06:37:34.832Z,11.30
2023-04-26T06:40:03.801Z,10.03
2023-04-26T06:42:33.061Z,15.73
2023-04-26T06:45:04.571Z,11.47
2023-04-26T06:47:31.580Z,15.43
2023-04-26T06:50:00.897Z,9.03
2023-04-26T06:52:30.079Z,15.27
2023-04-26T06:55:03.417Z,11.07
2023-04-26T06:57:30.288Z,12.47
2023-04-26T06:59:59.520Z,11.90
2023-04-26T07:02:26.509Z,18.47
2023-04-26T07:04:53.667Z,13.10
2023-04-26T07:07:22.840Z,12.53
2023-04-26T07:09:52.550Z,9.73
2023-04-26T07:12:19.330Z,13.20
2023-04-26T07:14:46.269Z,11.47
2023-04-26T07:17:13.288Z,12.53
2023-04-26T07:19:40.063Z,13.63
2023-04-26T07:22:07.095Z,15.50
2023-04-26T07:24:33.840Z,13.77
2023-04-26T07:27:01.212Z,16.97
2023-04-26T07:29:28.040Z,11.10
2023-04-26T07:31:54.848Z,13.73
2023-04-26T07:34:24.012Z,12.40
2023-04-26T07:36:50.817Z,11.83
2023-04-26T07:39:19.886Z,10.60
2023-04-26T07:41:46.745Z,8.50
2023-04-26T07:44:13.557Z,13.97
2023-04-26T07:46:40.346Z,10.27
2023-04-26T07:49:07.237Z,14.43
2023-04-26T07:51:35.823Z,12.43
2023-04-26T07:54:02.582Z,18.13
2023-04-26T07:56:29.341Z,11.87
2023-04-26T07:58:56.304Z,13.93
2023-04-26T08:01:23.084Z,10.00
2023-04-26T08:03:50.245Z,11.77
2023-04-26T08:06:19.828Z,10.03
2023-04-26T08:08:50.831Z,13.67
2023-04-26T08:11:18.332Z,6.87
2023-04-26T08:13:45.212Z,15.37
2023-04-26T08:16:14.256Z,7.93
2023-04-26T08:18:46.094Z,8.40
2023-04-26T08:21:13.806Z,15.43
2023-04-26T08:23:42.923Z,11.07
2023-04-26T08:26:09.682Z,12.57
2023-04-26T08:28:36.509Z,10.60
2023-04-26T08:31:05.604Z,10.07
2023-04-26T08:33:32.459Z,15.80
2023-04-26T08:36:01.248Z,9.27
2023-04-26T08:38:29.622Z,10.93
2023-04-26T08:40:58.777Z,10.60
2023-04-26T08:43:27.500Z,11.27
2023-04-26T08:45:55.433Z,10.30
2023-04-26T08:48:22.394Z,8.90
2023-04-26T08:50:49.132Z,9.83
2023-04-26T08:53:18.531Z,11.10
2023-04-26T08:55:49.467Z,5.23
2023-04-26T08:58:20.429Z,9.53
2023-04-26T09:00:49.439Z,6.63
2023-04-26T09:03:18.874Z,10.77
2023-04-26T09:05:46.024Z,16.37
2023-04-26T09:08:18.980Z,10.60
2023-04-26T09:10:47.981Z,8.83
2023-04-26T09:13:14.848Z,13.57
2023-04-26T09:15:42.130Z,7.87
2023-04-26T09:18:21.599Z,9.83
2023-04-26T09:21:03.776Z,10.60
2023-04-26T09:23:30.986Z,5.97
2023-04-26T09:26:14.898Z,7.73
2023-04-26T09:28:42.766Z,8.17
2023-04-26T09:31:13.132Z,14.40
2023-04-26T09:34:02.315Z,7.77
2023-04-26T09:36:32.056Z,10.23
2023-04-26T09:38:59.100Z,8.07
2023-04-26T09:41:45.800Z,10.70
2023-04-26T09:44:23.427Z,9.60
2023-04-26T09:47:07.395Z,9.03
2023-04-26T09:49:43.608Z,12.40
2023-04-26T09:52:10.589Z,10.27
2023-04-26T09:54:50.189Z,7.07
2023-04-26T09:57:17.580Z,10.43
2023-04-26T09:59:55.547Z,9.57
2023-04-26T10:02:23.983Z,10.70
2023-04-26T10:04:52.759Z,9.73
2023-04-26T10:07:23.098Z,8.33
2023-04-26T10:09:50.179Z,8.70
2023-04-26T10:12:18.553Z,6.40
2023-04-26T10:14:48.515Z,3.53
2023-04-26T10:17:15.357Z,11.73
2023-04-26T10:19:46.626Z,9.20
2023-04-26T10:22:20.407Z,3.20
2023-04-26T10:24:49.681Z,7.87
2023-04-26T10:27:16.450Z,5.43
2023-04-26T10:29:55.154Z,5.90
2023-04-26T10:32:26.745Z,5.87
2023-04-26T10:35:17.261Z,7.60
2023-04-26T10:38:02.593Z,5.70
2023-04-26T10:40:37.343Z,5.17
2023-04-26T10:43:16.173Z,9.17
2023-04-26T10:45:46.512Z,6.03
2023-04-26T10:48:20.792Z,7.70
2023-04-26T10:51:05.605Z,7.40
2023-04-26T10:53:35.715Z,5.80
2023-04-26T10:56:02.467Z,9.00
2023-04-26T10:58:35.213Z,9.30
2023-04-26T11:01:08.787Z,5.63
2023-04-26T11:03:36.109Z,8.20
2023-04-26T11:06:15.694Z,6.13
2023-04-26T11:08:43.279Z,8.47
2023-04-26T11:11:13.587Z,10.23
2023-04-26T11:13:41.984Z,8.03
2023-04-26T11:16:15.066Z,7.77
2023-04-26T11:18:46.201Z,13.17
2023-04-26T11:21:15.305Z,9.33
2023-04-26T11:23:42.090Z,8.20
2023-04-26T11:26:09.095Z,12.50
2023-04-26T11:28:37.332Z,10.47
2023-04-26T11:31:04.597Z,11.53
2023-04-26T11:33:31.514Z,9.97
2023-04-26T11:35:58.488Z,7.73
2023-04-26T11:38:30.555Z,8.90
2023-04-26T11:40:58.714Z,9.10
2023-04-26T11:43:34.587Z,10.27
2023-04-26T11:46:01.591Z,8.67
2023-04-26T11:48:31.068Z,7.33
2023-04-26T11:50:59.121Z,8.77
2023-04-26T11:53:26.099Z,12.23
2023-04-26T11:55:52.855Z,14.60
2023-04-26T11:58:19.793Z,8.43
2023-04-26T12:01:00.396Z,11.23
2023-04-26T12:03:35.558Z,10.60
2023-04-26T12:06:02.540Z,9.30
2023-04-26T12:08:32.200Z,7.43
2023-04-26T12:11:02.322Z,12.70
2023-04-26T12:13:32.996Z,9.40
2023-04-26T12:15:59.812Z,11.03
2023-04-26T12:18:32.929Z,9.53
2023-04-26T12:20:59.779Z,10.70
2023-04-26T12:23:26.684Z,6.57
2023-04-26T12:25:56.683Z,9.13
2023-04-26T12:28:23.945Z,8.70
2023-04-26T12:30:53.271Z,8.60
2023-04-26T12:33:23.171Z,9.60
2023-04-26T12:35:50.752Z,9.17
2023-04-26T12:38:18.896Z,5.60
2023-04-26T12:40:45.837Z,10.67
2023-04-26T12:43:12.970Z,10.30
2023-04-26T12:45:42.312Z,9.97
2023-04-26T12:48:09.178Z,7.00
2023-04-26T12:50:38.468Z,6.87
2023-04-26T12:53:05.303Z,9.13
2023-04-26T12:55:32.937Z,6.07
2023-04-26T12:58:02.519Z,8.57
2023-04-26T13:00:29.396Z,6.00
2023-04-26T13:02:56.321Z,6.07
2023-04-26T13:05:24.930Z,5.20
2023-04-26T13:07:54.218Z,9.43
2023-04-26T13:10:21.194Z,9.83
2023-04-26T13:12:47.973Z,5.23
2023-04-26T13:15:17.932Z,7.83
2023-04-26T13:17:47.585Z,7.07
2023-04-26T13:20:16.864Z,6.87
2023-04-26T13:22:43.788Z,6.23
2023-04-26T13:25:11.227Z,8.60
2023-04-26T13:27:37.992Z,10.87
2023-04-26T13:30:08.580Z,5.87
2023-04-26T13:32:37.519Z,10.60
2023-04-26T13:35:04.612Z,7.00
2023-04-26T13:37:33.499Z,7.90
2023-04-26T13:40:02.497Z,8.90
2023-04-26T13:42:29.244Z,10.93
2023-04-26T13:44:56.048Z,11.30
2023-04-26T13:47:22.945Z,7.30
2023-04-26T13:49:49.807Z,10.93
2023-04-26T13:52:16.593Z,9.87
2023-04-26T13:54:43.405Z,6.23
2023-04-26T13:57:12.548Z,9.53
2023-04-26T13:59:40.579Z,10.90
2023-04-26T14:02:10.675Z,8.67
2023-04-26T14:04:37.860Z,6.97
2023-04-26T14:07:07.104Z,4.80
2023-04-26T14:09:36.436Z,6.23
2023-04-26T14:12:08.434Z,7.23
2023-04-26T14:14:35.847Z,5.50
2023-04-26T14:17:02.622Z,5.63
2023-04-26T14:19:29.666Z,7.60
2023-04-26T14:21:56.413Z,8.43
2023-04-26T14:24:23.240Z,6.43
2023-04-26T14:26:52.303Z,6.30
2023-04-26T14:29:21.460Z,4.30
2023-04-26T14:31:48.245Z,8.47
2023-04-26T14:34:17.654Z,4.73
2023-04-26T14:36:44.406Z,7.60
2023-04-26T14:39:13.274Z,6.53
2023-04-26T14:41:40.077Z,11.07
2023-04-26T14:44:09.348Z,9.47
2023-04-26T14:46:37.215Z,9.60
2023-04-26T14:49:04.276Z,6.60
2023-04-26T14:51:33.315Z,8.23
2023-04-26T14:54:02.285Z,7.80
2023-04-26T14:56:35.503Z,8.57
2023-04-26T14:59:04.688Z,12.13
2023-04-26T15:01:33.715Z,6.50
2023-04-26T15:04:01.466Z,8.00
2023-04-26T15:06:29.069Z,8.57
2023-04-26T15:08:55.948Z,8.50
2023-04-26T15:11:27.429Z,7.70
2023-04-26T15:13:54.200Z,7.40
2023-04-26T15:16:21.025Z,9.43
2023-04-26T15:18:50.124Z,8.47
2023-04-26T15:21:19.777Z,5.60
2023-04-26T15:23:46.710Z,11.90
2023-04-26T15:26:14.084Z,9.93
2023-04-26T15:28:41.263Z,8.20
2023-04-26T15:31:09.152Z,9.53
2023-04-26T15:33:36.452Z,11.27
2023-04-26T15:36:03.440Z,12.07
2023-04-26T15:38:30.254Z,9.77
2023-04-26T15:40:57.017Z,9.17
2023-04-26T15:43:26.042Z,10.23
2023-04-26T15:45:53.115Z,10.97
2023-04-26T15:48:19.935Z,11.40
2023-04-26T15:50:53.852Z,7.70
2023-04-26T15:53:25.294Z,9.30
2023-04-26T15:55:52.105Z,11.97
2023-04-26T15:58:19.029Z,8.50
2023-04-26T16:00:45.916Z,8.67
2023-04-26T16:03:12.818Z,11.37
2023-04-26T16:05:41.384Z,8.43
2023-04-26T16:08:08.131Z,9.07
2023-04-26T16:10:37.596Z,7.90
2023-04-26T16:13:05.152Z,9.33
2023-04-26T16:15:32.228Z,17.43
2023-04-26T16:17:59.121Z,8.93
2023-04-26T16:20:28.368Z,7.83
2023-04-26T16:22:57.262Z,10.50
2023-04-26T16:25:24.297Z,12.30
2023-04-26T16:27:52.824Z,8.57
2023-04-26T16:30:22.249Z,12.77
2023-04-26T16:32:49.122Z,10.17
2023-04-26T16:35:18.590Z,8.03
2023-04-26T16:37:48.344Z,6.57
2023-04-26T16:40:15.175Z,7.57
2023-04-26T16:42:44.645Z,9.77
2023-04-26T16:45:14.514Z,6.13
2023-04-26T16:47:43.004Z,9.00
2023-04-26T16:50:10.286Z,11.13
2023-04-26T16:52:37.627Z,10.47
2023-04-26T16:55:06.125Z,9.13
2023-04-26T16:57:33.166Z,6.43
2023-04-26T17:00:00.176Z,5.83
2023-04-26T17:02:29.387Z,13.67
2023-04-26T17:04:56.568Z,9.80
2023-04-26T17:07:23.452Z,6.23
2023-04-26T17:09:53.851Z,11.23
2023-04-26T17:12:20.617Z,18.40
2023-04-26T17:14:49.982Z,9.77
2023-04-26T17:17:16.752Z,10.30
2023-04-26T17:19:43.709Z,10.97
2023-04-26T17:22:12.619Z,8.70
2023-04-26T17:24:39.410Z,13.60
2023-04-26T17:27:06.259Z,13.03
2023-04-26T17:29:35.242Z,10.70
2023-04-26T17:32:04.495Z,9.70
2023-04-26T17:34:33.848Z,10.03
2023-04-26T17:37:03.028Z,10.40
2023-04-26T17:39:29.841Z,8.57
2023-04-26T17:41:56.798Z,8.03
2023-04-26T17:44:23.678Z,11.30
2023-04-26T17:46:52.733Z,9.57
2023-04-26T17:49:21.437Z,11.90
2023-04-26T17:51:48.189Z,6.47
2023-04-26T17:54:15.005Z,10.33
2023-04-26T17:56:43.474Z,12.20
2023-04-26T17:59:10.333Z,8.83
2023-04-26T18:01:37.238Z,9.97
2023-04-26T18:04:06.529Z,10.23
2023-04-26T18:06:36.773Z,7.10
2023-04-26T18:09:04.958Z,7.50
2023-04-26T18:11:34.285Z,13.07
2023-04-26T18:14:05.851Z,5.70
2023-04-26T18:16:32.685Z,11.33
2023-04-26T18:18:59.463Z,11.03
2023-04-26T18:21:26.756Z,9.80
2023-04-26T18:23:53.532Z,13.63
2023-04-26T18:26:20.317Z,11.23
2023-04-26T18:28:47.211Z,10.10
2023-04-26T18:31:14.056Z,19.80
2023-04-26T18:33:40.898Z,7.37
2023-04-26T18:36:07.883Z,16.13
2023-04-26T18:38:36.833Z,10.33
2023-04-26T18:41:03.639Z,7.97
2023-04-26T18:43:32.615Z,13.70
2023-04-26T18:46:03.763Z,8.93
2023-04-26T18:48:32.682Z,14.13
2023-04-26T18:50:59.479Z,6.63
2023-04-26T18:53:26.278Z,15.53
2023-04-26T18:55:56.315Z,13.13
2023-04-26T18:58:23.123Z,13.87
2023-04-26T19:00:50.209Z,9.50
2023-04-26T19:03:17.549Z,10.03
2023-04-26T19:05:44.543Z,10.23
2023-04-26T19:08:12.511Z,12.07
2023-04-26T19:10:39.306Z,8.67
2023-04-26T19:13:06.359Z,9.97
2023-04-26T19:15:34.217Z,9.40
2023-04-26T19:18:05.693Z,7.93
2023-04-26T19:20:32.515Z,9.83
2023-04-26T19:23:01.433Z,14.30
2023-04-26T19:25:30.426Z,11.10
2023-04-26T19:27:57.445Z,13.40
2023-04-26T19:30:24.249Z,14.37
2023-04-26T19:32:51.138Z,15.70
2023-04-26T19:35:17.974Z,12.80
2023-04-26T19:37:44.820Z,12.53
2023-04-26T19:40:14.205Z,12.10
2023-04-26T19:42:41.072Z,12.23
2023-04-26T19:45:10.676Z,17.43
2023-04-26T19:47:40.408Z,12.70
2023-04-26T19:50:09.846Z,10.33
2023-04-26T19:52:39.199Z,16.57
2023-04-26T19:55:11.511Z,15.40
2023-04-26T19:57:38.670Z,13.43
2023-04-26T20:00:10.030Z,17.80
2023-04-26T20:02:36.972Z,22.90
2023-04-26T20:05:07.070Z,20.90
2023-04-26T20:07:36.182Z,15.90
2023-04-26T20:10:05.215Z,20.13
2023-04-26T20:12:35.503Z,20.50
2023-04-26T20:15:04.437Z,20.97
2023-04-26T20:17:31.374Z,18.50
2023-04-26T20:20:00.433Z,19.47
2023-04-26T20:22:27.205Z,24.53
2023-04-26T20:24:56.236Z,23.17
2023-04-26T20:27:23.010Z,25.40
2023-04-26T20:29:52.197Z,24.47
2023-04-26T20:32:19.010Z,21.53
2023-04-26T20:34:45.816Z,25.53
2023-04-26T20:37:14.975Z,25.83
2023-04-26T20:39:41.756Z,23.23
2023-04-26T20:42:08.576Z,22.70
2023-04-26T20:44:37.609Z,21.70
2023-04-26T20:47:04.682Z,21.63
2023-04-26T20:49:31.492Z,22.67
2023-04-26T20:51:58.236Z,19.10
2023-04-26T20:54:25.065Z,23.37
2023-04-26T20:56:51.854Z,18.40
2023-04-26T20:59:18.639Z,22.90
2023-04-26T21:01:45.590Z,21.90
2023-04-26T21:04:14.812Z,19.37
2023-04-26T21:06:41.719Z,24.60
2023-04-26T21:09:11.704Z,20.03
2023-04-26T21:11:40.948Z,17.47
2023-04-26T21:14:10.266Z,20.90
2023-04-26T21:16:39.238Z,20.17
2023-04-26T21:19:06.149Z,23.07
2023-04-26T21:21:33.168Z,20.00
2023-04-26T21:24:00.938Z,21.67
2023-04-26T21:26:27.781Z,19.33
2023-04-26T21:28:54.603Z,28.07
2023-04-26T21:31:23.724Z,19.37
2023-04-26T21:33:50.857Z,22.40
2023-04-26T21:36:17.734Z,23.17
2023-04-26T21:38:44.578Z,20.77
2023-04-26T21:41:11.408Z,21.63
2023-04-26T21:43:38.244Z,19.77
2023-04-26T21:46:08.109Z,21.20
2023-04-26T21:48:39.294Z,23.23
2023-04-26T21:51:08.343Z,25.43
2023-04-26T21:53:37.115Z,23.27
2023-04-26T21:56:06.155Z,19.83
2023-04-26T21:58:33.409Z,22.03
2023-04-26T22:01:16.742Z,23.70
2023-04-26T22:03:46.213Z,30.40
2023-04-26T22:06:15.430Z,23.67
2023-04-26T22:08:42.243Z,23.63
2023-04-26T22:11:09.022Z,23.17
2023-04-26T22:13:35.882Z,18.00
2023-04-26T22:16:02.764Z,22.53
2023-04-26T22:18:29.828Z,25.30
2023-04-26T22:20:56.656Z,18.93
2023-04-26T22:23:25.832Z,19.77
2023-04-26T22:25:52.590Z,18.43
2023-04-26T22:28:19.375Z,21.17
2023-04-26T22:30:46.872Z,21.27
2023-04-26T22:33:16.692Z,19.03
2023-04-26T22:35:45.679Z,18.40
2023-04-26T22:38:12.501Z,18.33
2023-04-26T22:40:42.026Z,15.77
2023-04-26T22:43:08.872Z,23.77
2023-04-26T22:45:35.770Z,17.67
2023-04-26T22:48:05.162Z,20.00
2023-04-26T22:50:34.503Z,23.43
2023-04-26T22:53:01.332Z,19.83
2023-04-26T22:55:30.969Z,16.87
2023-04-26T22:57:57.723Z,15.50
2023-04-26T23:00:25.904Z,22.03
2023-04-26T23:02:52.917Z,19.63
2023-04-26T23:05:20.040Z,20.03
2023-04-26T23:07:46.856Z,18.63
2023-04-26T23:10:13.846Z,23.97
2023-04-26T23:12:41.286Z,20.37
2023-04-26T23:15:11.739Z,23.60
2023-04-26T23:17:43.228Z,22.83
2023-04-26T23:20:12.989Z,16.87
2023-04-26T23:22:42.801Z,22.50
2023-04-26T23:25:12.265Z,19.43
2023-04-26T23:27:39.149Z,18.67
2023-04-26T23:30:06.830Z,23.57
2023-04-26T23:32:35.896Z,21.13
2023-04-26T23:35:02.975Z,20.07
2023-04-26T23:37:29.942Z,19.40
2023-04-26T23:39:56.818Z,20.10
2023-04-26T23:42:25.869Z,21.83
2023-04-26T23:44:57.509Z,17.83
2023-04-26T23:47:24.299Z,17.47
2023-04-26T23:49:53.218Z,20.90
2023-04-26T23:52:20.105Z,20.17
2023-04-26T23:54:46.988Z,20.73
2023-04-26T23:57:16.189Z,24.47
2023-04-26T23:59:45.618Z,18.40
